Time,TemperatureF,DewpointF,PressureIn,WindDirection,WindDirectionDegrees,WindSpeedMPH,WindSpeedGustMPH,Humidity,HourlyPrecipIn,Conditions,Clouds,dailyrainin,SoftwareType,DateUTC
2013-09-17 00:12:00,72.0,71.0,30.01,NNW,343,0.0,0.0,96,0.00,,,0.07,,2013-09-17 05:12:00,
2013-09-17 00:23:00,72.0,71.0,30.01,NNW,343,0.0,0.0,96,0.00,,,0.07,,2013-09-17 05:23:00,
2013-09-17 00:42:00,72.0,71.0,30.02,NNW,343,0.0,0.0,96,0.00,,,0.07,,2013-09-17 05:42:00,
2013-09-17 00:52:00,72.0,71.0,30.01,NNW,342,0.0,0.0,96,0.00,,,0.07,,2013-09-17 05:52:00,
2013-09-17 01:12:00,73.0,72.0,30.01,SSW,212,0.0,1.0,96,0.00,,,0.07,,2013-09-17 06:12:00,
2013-09-17 01:22:00,73.0,72.0,30.01,SW,231,0.0,2.0,96,0.00,,,0.07,,2013-09-17 06:22:00,
2013-09-17 01:42:00,73.0,71.0,30.00,WSW,255,0.0,2.0,95,0.00,,,0.07,,2013-09-17 06:42:00,
2013-09-17 01:52:00,73.0,71.0,29.99,WSW,240,0.0,2.0,94,0.00,,,0.07,,2013-09-17 06:52:00,
2013-09-17 02:11:00,73.0,71.0,29.99,WSW,257,0.0,1.0,95,0.00,,,0.07,,2013-09-17 07:11:00,
2013-09-17 02:23:00,73.0,71.0,29.99,SSW,195,0.0,1.0,95,0.00,,,0.07,,2013-09-17 07:23:00,
2013-09-17 02:42:00,72.0,70.0,29.98,SSW,197,0.0,0.0,95,0.00,,,0.07,,2013-09-17 07:42:00,
2013-09-17 02:52:00,72.0,71.0,29.99,ESE,116,0.0,1.0,96,0.00,,,0.07,,2013-09-17 07:52:00,
2013-09-17 03:12:00,72.0,71.0,29.99,ESE,115,0.0,0.0,96,0.00,,,0.07,,2013-09-17 08:12:00,
2013-09-17 03:22:00,72.0,71.0,29.98,ESE,115,0.0,0.0,96,0.00,,,0.07,,2013-09-17 08:22:00,
2013-09-17 03:42:00,72.0,71.0,29.99,SE,129,0.0,0.0,96,0.00,,,0.07,,2013-09-17 08:42:00,
2013-09-17 03:52:00,71.0,70.0,30.00,East,97,0.0,1.0,96,0.00,,,0.07,,2013-09-17 08:52:00,
2013-09-17 04:12:00,71.0,70.0,29.99,ESE,108,0.0,0.0,97,0.00,,,0.07,,2013-09-17 09:12:00,
2013-09-17 04:22:00,71.0,70.0,29.99,ESE,108,0.0,0.0,97,0.00,,,0.07,,2013-09-17 09:22:00,
2013-09-17 04:42:00,71.0,70.0,29.99,ESE,109,0.0,0.0,97,0.00,,,0.07,,2013-09-17 09:42:00,
2013-09-17 04:53:00,71.0,70.0,29.99,ESE,109,0.0,0.0,97,0.00,,,0.07,,2013-09-17 09:53:00,
2013-09-17 05:12:00,71.0,70.0,29.99,ESE,109,0.0,0.0,97,0.00,,,0.07,,2013-09-17 10:12:00,
2013-09-17 05:23:00,70.0,69.0,29.99,ESE,109,0.0,1.0,97,0.00,,,0.07,,2013-09-17 10:23:00,
2013-09-17 05:42:00,70.0,69.0,29.99,ESE,118,0.0,1.0,98,0.00,,,0.07,,2013-09-17 10:42:00,
2013-09-17 05:53:00,70.0,69.0,30.00,ESE,103,0.0,1.0,98,0.00,,,0.07,,2013-09-17 10:53:00,
2013-09-17 06:11:00,70.0,69.0,30.00,East,89,0.0,1.0,98,0.01,,,0.08,,2013-09-17 11:11:00,
2013-09-17 06:22:00,70.0,69.0,30.01,East,90,0.0,1.0,97,0.01,,,0.08,,2013-09-17 11:22:00,
2013-09-17 06:52:00,70.0,69.0,30.02,ESE,103,0.0,2.0,97,0.01,,,0.08,,2013-09-17 11:52:00,
2013-09-17 07:12:00,70.0,69.0,30.02,ESE,103,0.0,0.0,97,0.00,,,0.08,,2013-09-17 12:12:00,
2013-09-17 07:22:00,70.0,69.0,30.02,East,81,0.0,0.0,98,0.00,,,0.08,,2013-09-17 12:22:00,
2013-09-17 07:42:00,71.0,70.0,30.03,East,79,0.0,1.0,98,0.00,,,0.08,,2013-09-17 12:42:00,
2013-09-17 07:52:00,72.0,71.0,30.03,ENE,76,0.0,2.0,97,0.00,,,0.08,,2013-09-17 12:52:00,
2013-09-17 08:11:00,73.0,71.0,30.03,East,83,0.0,3.0,95,0.00,,,0.08,,2013-09-17 13:11:00,
2013-09-17 08:22:00,74.0,72.0,30.04,ESE,108,1.0,3.0,94,0.00,,,0.08,,2013-09-17 13:22:00,
2013-09-17 08:42:00,75.0,73.0,30.04,ENE,72,2.0,6.0,92,0.00,,,0.08,,2013-09-17 13:42:00,
2013-09-17 08:52:00,76.0,73.0,30.04,ENE,61,2.0,6.0,90,0.00,,,0.08,,2013-09-17 13:52:00,
2013-09-17 09:11:00,78.0,74.0,30.04,ENE,70,0.0,3.0,89,0.00,,,0.08,,2013-09-17 14:11:00,
2013-09-17 09:22:00,78.0,73.0,30.04,East,82,1.0,5.0,86,0.00,,,0.08,,2013-09-17 14:22:00,
2013-09-17 09:52:00,80.0,74.0,30.04,ENE,77,2.0,6.0,82,0.00,,,0.08,,2013-09-17 14:52:00,
2013-09-17 10:11:00,81.0,74.0,30.05,ENE,58,3.0,6.0,80,0.00,,,0.08,,2013-09-17 15:11:00,
2013-09-17 10:22:00,82.0,74.0,30.05,SE,130,3.0,6.0,77,0.00,,,0.08,,2013-09-17 15:22:00,
2013-09-17 10:44:00,83.0,75.0,30.05,NNE,31,2.0,6.0,76,0.00,,,0.08,,2013-09-17 15:44:00,
2013-09-17 10:53:00,83.0,73.0,30.05,East,86,4.0,6.0,72,0.00,,,0.08,,2013-09-17 15:53:00,
2013-09-17 11:13:00,84.0,75.0,30.05,East,79,0.0,4.0,75,0.00,,,0.08,,2013-09-17 16:13:00,
2013-09-17 11:23:00,85.0,75.0,30.05,ENE,58,2.0,7.0,71,0.00,,,0.08,,2013-09-17 16:23:00,
2013-09-17 11:54:00,86.0,75.0,30.04,East,94,0.0,5.0,70,0.00,,,0.08,,2013-09-17 16:54:00,
2013-09-17 12:12:00,86.0,75.0,30.04,ESE,117,3.0,8.0,70,0.00,,,0.08,,2013-09-17 17:12:00,
2013-09-17 12:24:00,86.0,75.0,30.03,South,170,1.0,6.0,71,0.00,,,0.08,,2013-09-17 17:24:00,
2013-09-17 12:43:00,87.0,76.0,30.03,SE,137,1.0,7.0,69,0.00,,,0.08,,2013-09-17 17:43:00,
2013-09-17 12:53:00,89.0,76.0,30.03,ESE,110,2.0,6.0,65,0.00,,,0.08,,2013-09-17 17:53:00,
2013-09-17 13:12:00,88.0,75.0,30.02,ENE,73,3.0,6.0,65,0.00,,,0.08,,2013-09-17 18:12:00,
2013-09-17 13:22:00,87.0,75.0,30.01,NE,56,1.0,5.0,68,0.00,,,0.08,,2013-09-17 18:22:00,
2013-09-17 13:42:00,86.0,75.0,30.01,ENE,62,4.0,6.0,69,0.00,,,0.08,,2013-09-17 18:42:00,
2013-09-17 13:52:00,85.0,76.0,30.01,SE,134,1.0,3.0,75,0.00,,,0.08,,2013-09-17 18:52:00,
2013-09-17 14:12:00,84.0,76.0,30.00,ENE,70,1.0,5.0,76,0.00,,,0.08,,2013-09-17 19:12:00,
2013-09-17 14:22:00,87.0,77.0,29.99,ENE,68,1.0,4.0,72,0.00,,,0.01,,2013-09-17 19:22:00,
2013-09-17 14:52:00,90.0,76.0,29.98,East,81,1.0,9.0,63,0.00,,,0.01,,2013-09-17 19:52:00,
2013-09-17 15:11:00,87.0,75.0,29.97,WSW,243,3.0,7.0,68,0.00,,,0.01,,2013-09-17 20:11:00,
2013-09-17 15:22:00,84.0,75.0,29.97,ENE,65,2.0,8.0,75,0.00,,,0.01,,2013-09-17 20:22:00,
2013-09-17 15:52:00,86.0,76.0,29.96,NNW,340,1.0,3.0,72,0.00,,,0.01,,2013-09-17 20:52:00,
2013-09-17 16:12:00,85.0,75.0,29.96,ENE,60,2.0,5.0,73,0.00,,,0.01,,2013-09-17 21:12:00,
2013-09-17 16:22:00,85.0,76.0,29.96,ENE,63,4.0,9.0,74,0.00,,,0.01,,2013-09-17 21:22:00,
2013-09-17 16:54:00,84.0,77.0,29.96,East,92,0.0,7.0,79,0.00,,,0.01,,2013-09-17 21:54:00,
2013-09-17 17:13:00,80.0,75.0,29.96,NNE,33,2.0,12.0,84,0.01,,,0.02,,2013-09-17 22:13:00,
2013-09-17 17:24:00,77.0,74.0,29.96,SE,125,0.0,0.0,91,0.02,,,0.03,,2013-09-17 22:24:00,
2013-09-17 17:53:00,77.0,75.0,29.96,SE,126,0.0,0.0,95,0.02,,,0.03,,2013-09-17 22:53:00,
2013-09-17 18:12:00,77.0,75.0,29.96,ESE,120,0.0,1.0,94,0.01,,,0.03,,2013-09-17 23:12:00,
2013-09-17 18:22:00,77.0,75.0,29.96,ESE,115,0.0,1.0,94,0.00,,,0.03,,2013-09-17 23:22:00,
2013-09-17 18:52:00,76.0,74.0,29.97,ESE,115,0.0,0.0,94,0.00,,,0.03,,2013-09-17 23:52:00,
2013-09-17 19:11:00,76.0,74.0,29.98,ESE,115,0.0,0.0,94,0.00,,,0.03,,2013-09-18 00:11:00,
2013-09-17 19:22:00,76.0,74.0,29.98,East,82,0.0,5.0,95,0.00,,,0.03,,2013-09-18 00:22:00,
2013-09-17 19:42:00,76.0,74.0,29.98,ENE,71,1.0,4.0,94,0.00,,,0.03,,2013-09-18 00:42:00,
2013-09-17 19:52:00,76.0,74.0,29.99,East,89,1.0,5.0,93,0.00,,,0.03,,2013-09-18 00:52:00,
2013-09-17 20:11:00,76.0,74.0,30.00,East,96,2.0,7.0,93,0.00,,,0.03,,2013-09-18 01:11:00,
2013-09-17 20:22:00,76.0,74.0,30.00,ESE,113,2.0,6.0,92,0.00,,,0.03,,2013-09-18 01:22:00,
2013-09-17 20:42:00,76.0,74.0,30.01,East,86,2.0,8.0,92,0.00,,,0.03,,2013-09-18 01:42:00,
2013-09-17 20:53:00,76.0,73.0,30.01,East,99,2.0,9.0,91,0.00,,,0.03,,2013-09-18 01:53:00,
2013-09-17 21:11:00,76.0,74.0,30.02,NE,53,1.0,7.0,92,0.00,,,0.03,,2013-09-18 02:11:00,
2013-09-17 21:22:00,75.0,73.0,30.03,ENE,62,2.0,7.0,92,0.00,,,0.03,,2013-09-18 02:22:00,
2013-09-17 21:43:00,75.0,73.0,30.03,East,81,1.0,6.0,92,0.00,,,0.03,,2013-09-18 02:43:00,
2013-09-17 21:52:00,75.0,72.0,30.03,ENE,61,4.0,10.0,91,0.00,,,0.03,,2013-09-18 02:52:00,
2013-09-17 22:12:00,75.0,72.0,30.03,ENE,58,2.0,7.0,91,0.00,,,0.03,,2013-09-18 03:12:00,
2013-09-17 22:23:00,75.0,72.0,30.03,ESE,112,5.0,10.0,90,0.00,,,0.03,,2013-09-18 03:23:00,
2013-09-17 22:44:00,75.0,72.0,30.03,NE,46,4.0,9.0,89,0.00,,,0.03,,2013-09-18 03:44:00,
2013-09-17 22:55:00,75.0,72.0,30.04,ENE,58,3.0,8.0,89,0.00,,,0.03,,2013-09-18 03:55:00,
2013-09-17 23:14:00,74.0,71.0,30.04,East,84,1.0,5.0,89,0.00,,,0.03,,2013-09-18 04:14:00,
2013-09-17 23:24:00,74.0,71.0,30.04,NE,51,1.0,6.0,90,0.00,,,0.03,,2013-09-18 04:24:00,
2013-09-17 23:44:00,74.0,71.0,30.04,ENE,70,3.0,6.0,90,0.00,,,0.03,,2013-09-18 04:44:00,
2013-09-17 23:54:00,74.0,71.0,30.05,ENE,62,1.0,5.0,91,0.00,,,0.03,,2013-09-18 04:54:00,